Time;durP1;ratioP1;P1;durP2;ratioP2;P2;SDS_P1;SDS_P2;PMS_P1;PMS_P2;Temp;Humidity;BMP_temperature;BMP_pressure;BME280_temperature;BME280_humidity;BME280_pressure;Samples;Min_cycle;Max_cycle;Signal;HPM_P1;HPM_P2
2022/12/28 00:00:08;;;;;;;29.55;7.25;;;;;;;14.48;68.66;100995.53;5018992;28;20044;-56
2022/12/28 00:02:34;;;;;;;19.70;4.75;;;;;;;14.55;68.38;101000.00;5031405;28;20352;-56
2022/12/28 00:05:01;;;;;;;29.33;5.75;;;;;;;14.47;69.77;100985.81;5030852;28;20450;-57
2022/12/28 00:07:27;;;;;;;20.55;6.25;;;;;;;14.48;69.68;101000.94;5031403;28;20475;-56
2022/12/28 00:09:53;;;;;;;23.13;5.95;;;;;;;14.39;69.85;101012.22;5031313;28;20033;-56
2022/12/28 00:12:20;;;;;;;29.60;6.22;;;;;;;14.45;69.67;101012.13;5025261;28;20365;-56
2022/12/28 00:14:46;;;;;;;24.08;6.20;;;;;;;14.53;69.04;100995.69;5011648;28;20030;-57
2022/12/28 00:17:12;;;;;;;21.65;5.78;;;;;;;14.57;67.85;101008.72;5012249;28;20032;-57
2022/12/28 00:19:38;;;;;;;22.55;5.53;;;;;;;14.51;67.87;101007.75;5013179;28;20030;-55
2022/12/28 00:22:05;;;;;;;24.88;5.35;;;;;;;14.36;68.61;101010.78;5021797;28;20079;-50
2022/12/28 00:24:31;;;;;;;24.77;4.85;;;;;;;14.42;66.95;101015.28;5019435;28;20037;-62
2022/12/28 00:26:57;;;;;;;23.02;5.60;;;;;;;14.26;67.95;101023.97;5025183;28;20084;-54
2022/12/28 00:29:24;;;;;;;25.13;4.88;;;;;;;14.19;68.72;101028.63;5027934;28;20033;-51
2022/12/28 00:31:50;;;;;;;16.27;4.57;;;;;;;14.31;68.62;101028.69;5034721;28;20091;-53
2022/12/28 00:34:16;;;;;;;17.58;5.38;;;;;;;14.14;68.41;101021.22;5023086;28;20030;-53
2022/12/28 00:36:42;;;;;;;24.60;5.85;;;;;;;14.11;69.11;101032.44;5015844;28;20369;-51
2022/12/28 00:39:09;;;;;;;15.32;3.90;;;;;;;14.12;69.54;101035.97;5022391;28;20040;-54
2022/12/28 00:41:35;;;;;;;21.50;4.55;;;;;;;14.12;70.14;101027.88;5046365;23;20082;-53
2022/12/28 00:44:02;;;;;;;24.77;5.65;;;;;;;14.16;70.29;101023.69;5022484;28;20468;-50
2022/12/28 00:46:28;;;;;;;27.33;5.47;;;;;;;14.13;69.83;101034.91;5030856;28;20418;-54
2022/12/28 00:48:54;;;;;;;21.75;5.70;;;;;;;14.05;69.94;101043.25;5018481;28;20036;-51
2022/12/28 00:51:20;;;;;;;26.10;5.80;;;;;;;14.09;69.84;101053.38;5029495;28;20079;-54
2022/12/28 00:53:46;;;;;;;19.02;5.22;;;;;;;14.04;69.57;101041.63;5020326;28;20030;-52
2022/12/28 00:56:16;;;;;;;23.08;5.43;;;;;;;13.94;70.28;101042.97;5026611;28;20424;-52
2022/12/28 00:58:43;;;;;;;27.75;6.05;;;;;;;13.87;70.51;101042.22;5018356;28;20468;-53
2022/12/28 01:01:15;;;;;;;24.85;5.85;;;;;;;13.95;69.73;101039.25;5020037;28;20121;-53
2022/12/28 01:03:42;;;;;;;23.17;5.25;;;;;;;13.94;70.00;101044.84;5014790;28;20026;-51
2022/12/28 01:06:10;;;;;;;22.40;4.80;;;;;;;13.93;69.89;101041.31;5024279;28;20060;-56
2022/12/28 01:08:38;;;;;;;25.80;6.05;;;;;;;13.86;70.20;101035.19;5034005;28;20029;-55
2022/12/28 01:11:08;;;;;;;30.00;5.75;;;;;;;13.90;69.90;101040.94;5024581;28;20026;-54
2022/12/28 01:13:34;;;;;;;22.27;5.78;;;;;;;13.84;69.89;101048.06;5014659;28;20035;-54
2022/12/28 01:16:16;;;;;;;24.92;5.80;;;;;;;13.76;69.77;101036.75;5021412;28;20026;-54
2022/12/28 01:18:43;;;;;;;26.88;5.57;;;;;;;13.75;69.80;101035.91;5017671;28;20026;-56
2022/12/28 01:21:18;;;;;;;20.08;5.85;;;;;;;13.79;69.20;101053.28;5028747;28;20514;-57
2022/12/28 01:23:46;;;;;;;27.77;6.03;;;;;;;13.71;69.63;101058.91;5026209;28;20460;-55
2022/12/28 01:26:13;;;;;;;26.63;5.70;;;;;;;13.70;69.78;101057.28;5013999;28;20113;-54
2022/12/28 01:28:39;;;;;;;23.33;4.93;;;;;;;13.69;69.86;101056.47;5013758;28;20033;-53
2022/12/28 01:31:09;;;;;;;24.33;5.53;;;;;;;13.59;69.38;101056.13;5013541;28;20057;-53
2022/12/28 01:33:37;;;;;;;24.75;5.22;;;;;;;13.46;69.81;101046.31;5019208;28;20061;-51
2022/12/28 01:36:08;;;;;;;26.75;6.13;;;;;;;13.39;70.27;101056.31;5032250;28;20180;-55
2022/12/28 01:38:35;;;;;;;18.60;5.70;;;;;;;13.35;70.51;101055.09;5027972;28;20052;-55
2022/12/28 01:41:01;;;;;;;15.82;5.22;;;;;;;13.30;70.77;101067.56;5016886;28;20025;-54
2022/12/28 01:43:46;;;;;;;22.38;5.00;;;;;;;13.27;70.56;101068.81;5025235;28;20570;-53
2022/12/28 01:46:28;;;;;;;16.05;4.60;;;;;;;13.24;70.65;101071.94;5013911;28;20033;-55
2022/12/28 01:49:11;;;;;;;26.55;6.20;;;;;;;13.13;71.09;101072.59;5013741;28;20562;-52
2022/12/28 01:51:50;;;;;;;24.83;5.70;;;;;;;13.04;71.37;101080.09;5013615;28;20064;-54
2022/12/28 01:54:17;;;;;;;22.45;5.15;;;;;;;13.07;71.48;101079.66;5013760;28;20530;-54
2022/12/28 01:56:44;;;;;;;28.73;6.75;;;;;;;13.31;70.68;101085.31;5030561;28;20375;-55
2022/12/28 01:59:11;;;;;;;18.15;4.50;;;;;;;12.97;71.15;101090.06;5033360;28;20109;-55
2022/12/28 02:01:38;;;;;;;24.58;5.18;;;;;;;12.82;71.81;101090.34;5033414;28;20038;-53
2022/12/28 02:04:04;;;;;;;24.05;5.25;;;;;;;12.66;72.29;101098.91;5033358;28;20030;-55
2022/12/28 02:06:31;;;;;;;21.90;5.50;;;;;;;12.63;72.86;101099.31;5033073;28;20479;-55
2022/12/28 02:09:06;;;;;;;18.15;4.65;;;;;;;12.67;73.30;101098.69;5025157;28;20038;-53
2022/12/28 02:11:33;;;;;;;25.17;4.60;;;;;;;12.58;73.07;101109.88;5016284;28;20491;-54
2022/12/28 02:14:01;;;;;;;27.55;6.03;;;;;;;12.47;73.63;101099.81;5012986;28;20029;-52
2022/12/28 02:16:27;;;;;;;24.75;5.70;;;;;;;12.42;73.65;101106.63;5012979;28;20029;-53
2022/12/28 02:18:54;;;;;;;27.17;6.68;;;;;;;12.47;73.66;101107.84;5012712;28;20435;-52
2022/12/28 02:21:52;;;;;;;26.08;6.75;;;;;;;12.32;73.94;101116.97;5013006;28;20030;-54
2022/12/28 02:24:24;;;;;;;27.45;6.25;;;;;;;12.25;74.14;101120.72;4975458;28;20042;-53
2022/12/28 02:27:16;;;;;;;32.22;7.57;;;;;;;12.14;74.88;101122.19;5012123;28;20106;-50
2022/12/28 02:29:51;;;;;;;21.83;6.10;;;;;;;11.99;75.53;101129.63;5012700;28;20030;-52
2022/12/28 02:32:36;;;;;;;19.33;5.93;;;;;;;11.97;75.61;101131.72;5012908;28;20088;-55
2022/12/28 02:35:27;;;;;;;22.20;5.80;;;;;;;11.86;75.82;101127.78;5012661;28;20036;-55
2022/12/28 02:38:00;;;;;;;20.63;5.95;;;;;;;11.95;75.94;101141.84;5012737;28;20472;-54
2022/12/28 02:40:37;;;;;;;22.75;6.25;;;;;;;11.82;76.12;101148.81;5010168;28;20042;-55
2022/12/28 02:43:03;;;;;;;22.33;6.47;;;;;;;11.73;76.54;101155.41;5017916;28;20061;-55
2022/12/28 02:51:08;;;;;;;24.23;6.80;;;;;;;11.86;76.37;101178.75;5017738;28;20052;-55
2022/12/28 02:53:44;;;;;;;32.58;6.60;;;;;;;11.72;76.65;101185.13;5031672;28;20029;-55
2022/12/28 02:56:51;;;;;;;31.85;6.53;;;;;;;11.62;77.11;101191.69;5032185;28;20030;-54
2022/12/28 02:59:21;;;;;;;28.77;6.57;;;;;;;11.74;77.10;101197.28;5012317;28;20073;-54
2022/12/28 03:02:34;;;;;;;21.77;5.32;;;;;;;11.67;77.39;101207.19;5015588;28;20036;-52
2022/12/28 03:05:18;;;;;;;28.88;6.70;;;;;;;11.59;77.82;101210.03;4941553;28;20132;-54
2022/12/28 03:11:03;;;;;;;30.98;6.32;;;;;;;11.54;78.08;101213.31;5012492;28;20037;-55
2022/12/28 03:13:47;;;;;;;25.60;5.88;;;;;;;11.49;78.52;101217.66;5011898;28;20435;-54
2022/12/28 03:16:18;;;;;;;24.80;6.22;;;;;;;11.57;78.07;101220.97;5011997;28;20105;-53
2022/12/28 03:32:49;;;;;;;23.23;6.20;;;;;;;11.55;78.05;101216.88;5032159;28;20044;-49
2022/12/28 03:35:19;;;;;;;21.13;5.63;;;;;;;11.54;77.77;101225.91;5031689;28;20033;-50
2022/12/28 03:38:01;;;;;;;27.45;6.57;;;;;;;11.43;78.42;101232.69;5025263;28;20120;-51
2022/12/28 03:40:49;;;;;;;21.02;6.15;;;;;;;11.41;78.38;101234.75;5030469;28;20480;-53
2022/12/28 03:43:40;;;;;;;23.08;5.63;;;;;;;11.40;78.46;101235.78;5030313;28;20136;-53
2022/12/28 03:46:09;;;;;;;31.05;6.80;;;;;;;11.42;78.24;101241.75;5030970;28;20033;-52
2022/12/28 03:48:36;;;;;;;21.67;6.60;;;;;;;11.63;77.50;101252.34;5031342;28;20060;-51
2022/12/28 03:51:03;;;;;;;30.15;6.95;;;;;;;11.39;78.14;101252.91;5031551;28;20509;-52
2022/12/28 03:53:44;;;;;;;22.00;6.57;;;;;;;11.36;78.26;101259.47;5031470;28;20033;-53
2022/12/28 03:56:16;;;;;;;28.55;6.78;;;;;;;11.44;78.14;101257.63;5025678;28;20112;-53
2022/12/28 03:58:42;;;;;;;21.85;6.55;;;;;;;11.29;78.32;101253.28;5011433;28;20245;-52
2022/12/28 04:01:09;;;;;;;22.50;5.78;;;;;;;11.15;78.79;101245.38;5013762;28;20053;-51
2022/12/28 04:03:35;;;;;;;19.67;5.15;;;;;;;11.03;78.84;101251.28;5031473;28;20056;-53
2022/12/28 04:06:02;;;;;;;29.45;7.15;;;;;;;10.98;79.09;101255.59;5033275;28;20018;-53
2022/12/28 04:08:28;;;;;;;21.65;5.47;;;;;;;11.19;78.54;101258.16;5034827;28;20075;-53
2022/12/28 04:10:54;;;;;;;21.50;5.57;;;;;;;11.00;79.07;101246.34;5034643;28;20025;-53
2022/12/28 04:13:21;;;;;;;29.45;6.75;;;;;;;10.70;80.35;101243.09;5034276;28;20040;-52
2022/12/28 04:16:01;;;;;;;30.10;7.30;;;;;;;10.80;80.14;101246.22;5035082;28;20033;-52
2022/12/28 04:18:29;;;;;;;23.90;6.22;;;;;;;10.98;79.84;101250.25;5034086;28;20442;-53
2022/12/28 04:20:55;;;;;;;20.25;5.80;;;;;;;10.91;80.33;101250.22;5035190;28;20032;-52
2022/12/28 04:23:21;;;;;;;27.67;5.72;;;;;;;10.97;80.25;101259.31;5034417;28;20112;-53
2022/12/28 04:26:11;;;;;;;29.27;6.25;;;;;;;11.01;80.05;101266.75;5030912;28;20451;-52
2022/12/28 04:28:38;;;;;;;19.92;5.85;;;;;;;11.02;80.07;101268.41;5011372;28;20030;-52
2022/12/28 04:31:06;;;;;;;19.65;5.68;;;;;;;11.02;80.19;101259.53;5014882;28;20423;-52
2022/12/28 04:33:34;;;;;;;20.60;5.25;;;;;;;10.96;80.06;101276.41;5019487;28;20022;-52
2022/12/28 04:36:06;;;;;;;21.27;5.13;;;;;;;10.97;80.35;101280.72;5014840;28;20464;-53
2022/12/28 04:38:33;;;;;;;20.55;5.18;;;;;;;11.07;80.06;101281.19;5030987;28;20029;-52
2022/12/28 04:40:59;;;;;;;26.73;6.22;;;;;;;10.96;80.01;101287.13;5030124;28;20387;-50
2022/12/28 04:43:26;;;;;;;19.25;5.22;;;;;;;11.01;79.72;101282.81;5034466;28;20463;-53
2022/12/28 04:46:12;;;;;;;22.27;5.80;;;;;;;10.93;80.08;101291.00;5033897;28;20430;-53
2022/12/28 04:48:38;;;;;;;22.10;5.47;;;;;;;11.08;78.98;101296.25;5034540;28;20025;-52
2022/12/28 04:51:18;;;;;;;22.08;5.57;;;;;;;10.67;80.56;101291.69;5033572;28;20035;-53
2022/12/28 04:53:44;;;;;;;28.30;6.63;;;;;;;10.88;79.77;101290.75;5034538;28;20392;-48
2022/12/28 04:56:12;;;;;;;24.60;5.70;;;;;;;10.90;79.54;101288.72;5033882;28;20025;-50
2022/12/28 04:58:39;;;;;;;30.25;6.72;;;;;;;10.90;79.08;101285.22;5033781;28;20033;-49
2022/12/28 05:01:13;;;;;;;29.05;6.80;;;;;;;10.86;79.31;101289.31;5033921;28;20044;-50
2022/12/28 05:03:42;;;;;;;29.40;5.63;;;;;;;10.71;79.77;101287.56;5034598;28;20014;-50
2022/12/28 05:06:12;;;;;;;28.85;6.47;;;;;;;10.52;80.11;101285.59;5033628;28;20475;-50
2022/12/28 05:08:39;;;;;;;26.33;6.57;;;;;;;10.62;79.80;101294.13;5033932;28;20116;-52
2022/12/28 05:11:11;;;;;;;27.98;6.43;;;;;;;10.72;79.19;101293.78;5033977;28;20048;-53
2022/12/28 05:13:37;;;;;;;16.10;5.00;;;;;;;10.68;79.22;101298.69;5034046;28;20033;-50
2022/12/28 05:16:07;;;;;;;20.92;5.65;;;;;;;10.61;79.29;101291.63;5033300;28;20037;-53
2022/12/28 05:18:33;;;;;;;19.55;4.53;;;;;;;10.45;79.97;101293.56;5033518;28;20111;-50
2022/12/28 05:21:08;;;;;;;23.48;5.22;;;;;;;10.46;79.90;101294.41;5030796;28;20455;-50
2022/12/28 05:23:37;;;;;;;19.67;5.63;;;;;;;10.39;80.46;101301.56;5014176;28;20033;-51
2022/12/28 05:26:06;;;;;;;22.60;6.05;;;;;;;10.29;80.66;101301.88;5024813;28;20033;-53
2022/12/28 05:28:32;;;;;;;26.77;5.85;;;;;;;10.16;81.82;101315.09;5033293;28;20025;-52
2022/12/28 05:31:01;;;;;;;26.88;6.45;;;;;;;10.15;81.78;101305.41;5033096;28;20110;-51
2022/12/28 05:33:33;;;;;;;23.38;6.32;;;;;;;10.29;80.88;101305.38;5033707;28;20029;-51
2022/12/28 05:36:06;;;;;;;22.02;5.82;;;;;;;10.51;80.06;101302.69;5033300;28;20033;-53
2022/12/28 05:38:33;;;;;;;19.40;5.80;;;;;;;10.40;80.01;101306.72;5033350;28;20033;-53
2022/12/28 05:41:11;;;;;;;20.33;5.88;;;;;;;10.14;80.78;101304.59;5033320;28;20475;-52
2022/12/28 05:43:38;;;;;;;25.60;5.60;;;;;;;9.94;81.79;101308.94;5033291;28;20103;-52
2022/12/28 05:46:07;;;;;;;29.38;7.43;;;;;;;9.86;82.88;101309.03;5033445;28;20037;-51
2022/12/28 05:48:34;;;;;;;20.02;6.40;;;;;;;9.84;82.40;101311.91;5032532;28;20033;-53
2022/12/28 05:51:03;;;;;;;38.70;8.50;;;;;;;9.72;83.34;101319.59;5033366;28;20021;-51
2022/12/28 05:53:31;;;;;;;19.17;6.20;;;;;;;9.75;82.76;101316.53;5032801;28;20029;-51
2022/12/28 05:56:24;;;;;;;21.92;6.07;;;;;;;9.81;82.00;101322.16;5033401;28;20029;-51
2022/12/28 05:58:56;;;;;;;23.77;7.93;;;;;;;9.59;82.50;101318.59;5029862;28;20400;-51
2022/12/28 06:01:25;;;;;;;25.33;7.47;;;;;;;9.56;82.91;101329.69;5032673;28;20414;-52
2022/12/28 06:03:56;;;;;;;19.02;6.70;;;;;;;9.57;82.30;101326.81;5019969;28;20018;-51
2022/12/28 06:06:23;;;;;;;19.83;6.60;;;;;;;9.59;81.94;101322.09;5023500;28;20025;-53
2022/12/28 06:08:49;;;;;;;18.75;6.82;;;;;;;9.66;81.30;101325.72;5033118;28;20025;-52
2022/12/28 06:11:18;;;;;;;17.38;7.18;;;;;;;9.72;81.25;101322.28;5032907;28;20037;-51
2022/12/28 06:13:45;;;;;;;26.20;7.72;;;;;;;9.60;81.31;101328.28;5032902;28;20029;-52
2022/12/28 06:16:24;;;;;;;17.70;5.72;;;;;;;9.61;80.86;101343.31;5032727;28;20079;-50
2022/12/28 06:18:51;;;;;;;17.45;5.53;;;;;;;9.51;80.90;101335.59;5033335;28;20108;-49
2022/12/28 06:21:21;;;;;;;13.48;5.47;;;;;;;9.39;80.72;101335.25;5032341;28;20040;-50
2022/12/28 06:23:48;;;;;;;23.80;7.25;;;;;;;9.31;81.16;101332.66;5032831;28;20235;-49
2022/12/28 06:26:18;;;;;;;16.25;6.65;;;;;;;9.25;81.74;101342.25;5032592;28;20502;-49
2022/12/28 06:28:44;;;;;;;13.90;5.57;;;;;;;9.29;81.53;101344.56;5031964;28;20404;-53
2022/12/28 06:31:21;;;;;;;29.08;6.53;;;;;;;9.05;83.06;101345.63;5032429;28;20029;-49
2022/12/28 06:33:49;;;;;;;21.65;6.63;;;;;;;9.13;82.73;101357.06;5032549;28;20026;-50
2022/12/28 06:36:18;;;;;;;21.60;5.15;;;;;;;9.10;82.52;101365.44;5032040;28;20498;-49
2022/12/28 06:38:45;;;;;;;26.20;6.35;;;;;;;9.06;82.67;101368.69;5031841;28;20029;-52
2022/12/28 06:41:13;;;;;;;26.50;6.55;;;;;;;9.06;82.41;101366.84;5032440;28;20029;-52
2022/12/28 06:43:41;;;;;;;21.23;6.13;;;;;;;9.07;82.00;101371.16;5031807;28;20579;-50
2022/12/28 06:46:08;;;;;;;22.30;6.32;;;;;;;9.10;82.17;101375.28;5032079;28;20032;-52
2022/12/28 06:48:35;;;;;;;26.63;6.80;;;;;;;9.04;82.37;101378.69;5031840;28;20030;-51
2022/12/28 06:51:04;;;;;;;25.77;5.75;;;;;;;8.95;82.46;101377.97;5032424;28;20025;-50
2022/12/28 06:53:34;;;;;;;18.52;5.22;;;;;;;8.94;82.87;101370.97;5032439;28;20163;-51
2022/12/28 06:56:03;;;;;;;25.92;6.88;;;;;;;8.83;83.43;101387.41;5031968;28;20022;-50
2022/12/28 06:58:31;;;;;;;18.17;5.43;;;;;;;8.81;83.67;101394.78;5031525;28;20361;-51
2022/12/28 07:01:04;;;;;;;27.33;6.82;;;;;;;8.72;83.58;101396.69;5030946;28;20435;-51
2022/12/28 07:03:30;;;;;;;23.70;6.50;;;;;;;8.75;82.91;101400.84;5022009;28;20030;-52
2022/12/28 07:06:00;;;;;;;21.92;6.20;;;;;;;8.76;82.70;101405.16;5031745;28;20140;-52
2022/12/28 07:08:27;;;;;;;20.45;6.38;;;;;;;8.71;82.79;101397.69;5031836;28;20075;-53
2022/12/28 07:10:54;;;;;;;19.88;6.25;;;;;;;8.72;82.76;101402.88;5031628;28;20029;-52
2022/12/28 07:13:20;;;;;;;18.65;6.55;;;;;;;8.68;83.00;101406.91;5031818;28;20479;-52
2022/12/28 07:15:46;;;;;;;34.97;7.45;;;;;;;8.61;83.58;101402.47;5031458;28;20052;-52
2022/12/28 07:18:12;;;;;;;22.23;6.43;;;;;;;8.71;83.43;101395.84;5031554;28;20384;-51
2022/12/28 07:20:39;;;;;;;18.08;6.60;;;;;;;8.73;83.14;101404.53;5031573;28;20126;-49
2022/12/28 07:23:05;;;;;;;22.30;5.93;;;;;;;8.73;82.75;101399.19;5031714;28;20511;-49
2022/12/28 07:25:31;;;;;;;19.55;5.95;;;;;;;8.66;82.38;101403.59;5031342;28;20049;-50
2022/12/28 07:27:58;;;;;;;16.05;5.85;;;;;;;8.63;82.43;101409.28;5031516;28;20026;-52
2022/12/28 07:30:24;;;;;;;21.17;6.05;;;;;;;8.64;81.86;101404.75;5031210;28;20032;-49
2022/12/28 07:32:50;;;;;;;23.73;6.05;;;;;;;8.56;82.07;101404.84;5031518;28;20120;-52
2022/12/28 07:35:16;;;;;;;22.55;6.78;;;;;;;8.52;82.91;101404.34;5031248;28;20657;-52
2022/12/28 07:37:43;;;;;;;27.63;6.72;;;;;;;8.54;83.07;101407.66;5031565;28;20037;-49
2022/12/28 07:40:09;;;;;;;27.42;8.02;;;;;;;8.51;82.48;101404.53;5031229;28;20431;-49
2022/12/28 07:42:36;;;;;;;23.98;7.10;;;;;;;8.35;83.03;101411.63;5031539;28;20046;-53
2022/12/28 07:45:02;;;;;;;23.95;7.47;;;;;;;8.40;83.47;101411.13;5031201;28;20037;-51
2022/12/28 07:47:28;;;;;;;25.08;6.95;;;;;;;8.52;82.97;101412.38;5030403;28;20044;-53
2022/12/28 07:49:55;;;;;;;33.30;8.60;;;;;;;8.33;83.63;101408.31;5031625;28;20376;-53
2022/12/28 07:52:21;;;;;;;26.65;7.88;;;;;;;8.11;85.74;101411.78;5031381;28;20033;-50
2022/12/28 07:54:47;;;;;;;18.65;6.65;;;;;;;8.21;85.19;101417.69;5031264;28;20041;-50
2022/12/28 07:57:13;;;;;;;24.25;7.40;;;;;;;7.96;86.89;101417.03;5031369;28;20091;-50
2022/12/28 07:59:39;;;;;;;22.33;7.15;;;;;;;8.12;86.23;101432.09;5031143;28;20081;-52
2022/12/28 08:02:07;;;;;;;21.65;6.50;;;;;;;8.15;85.78;101421.06;5031396;28;20025;-52
2022/12/28 08:04:33;;;;;;;22.77;7.20;;;;;;;8.23;85.40;101418.38;5029674;28;20464;-52
2022/12/28 08:07:00;;;;;;;24.50;6.82;;;;;;;8.12;84.96;101416.94;5030967;28;20072;-52
2022/12/28 08:09:26;;;;;;;20.42;6.75;;;;;;;8.15;85.44;101405.06;5031363;28;20029;-52
2022/12/28 08:11:52;;;;;;;22.27;6.72;;;;;;;8.21;85.02;101415.84;5031430;28;20432;-50
2022/12/28 08:14:18;;;;;;;18.27;7.03;;;;;;;8.10;85.21;101413.59;5030766;28;20114;-53
2022/12/28 08:16:44;;;;;;;25.30;7.30;;;;;;;8.07;85.33;101411.28;5030926;28;20383;-50
2022/12/28 08:19:11;;;;;;;28.00;7.13;;;;;;;8.18;84.46;101410.91;5030798;28;20037;-54
2022/12/28 08:21:43;;;;;;;26.45;6.88;;;;;;;7.99;84.90;101414.00;5031155;28;20495;-51
2022/12/28 08:24:14;;;;;;;23.02;6.95;;;;;;;7.93;85.19;101409.38;5031033;28;20129;-54
2022/12/28 08:26:40;;;;;;;20.23;7.07;;;;;;;7.91;84.80;101411.38;5030887;28;20026;-51
2022/12/28 08:29:10;;;;;;;28.27;6.93;;;;;;;8.00;84.64;101410.34;5030566;28;20025;-50
2022/12/28 08:31:39;;;;;;;17.60;6.72;;;;;;;7.52;87.74;101406.06;5030951;28;20036;-52
2022/12/28 08:34:08;;;;;;;16.23;6.82;;;;;;;7.74;86.26;101407.13;5030838;28;20025;-49
2022/12/28 08:36:34;;;;;;;26.05;6.82;;;;;;;7.70;86.29;101406.66;5030680;28;20506;-50
2022/12/28 08:39:01;;;;;;;26.65;7.15;;;;;;;7.65;86.03;101399.16;5030683;28;20033;-49
2022/12/28 08:41:28;;;;;;;22.15;6.20;;;;;;;7.88;84.36;101393.06;5031172;28;20038;-52
2022/12/28 08:43:55;;;;;;;21.27;6.32;;;;;;;7.86;84.21;101400.41;5030492;28;20048;-49
2022/12/28 08:46:24;;;;;;;26.60;7.28;;;;;;;7.27;86.52;101394.63;5031130;28;20070;-52
2022/12/28 08:48:53;;;;;;;24.20;6.82;;;;;;;7.44;87.44;101390.09;5030718;28;20048;-52
2022/12/28 08:51:40;;;;;;;22.35;6.65;;;;;;;7.41;87.18;101377.97;5031996;28;20032;-49
2022/12/28 08:54:08;;;;;;;31.77;7.05;;;;;;;7.29;88.83;101382.00;5034204;28;20109;-53
2022/12/28 08:56:37;;;;;;;22.50;6.93;;;;;;;7.41;87.32;101376.13;5034451;28;20032;-51
2022/12/28 08:59:04;;;;;;;21.27;5.47;;;;;;;7.67;85.85;101369.72;5034102;28;20438;-50
2022/12/28 09:01:33;;;;;;;17.55;5.80;;;;;;;7.48;85.78;101362.94;5052888;23;20021;-52
2022/12/28 09:04:00;;;;;;;26.20;6.45;;;;;;;7.39;86.23;101361.34;5031895;28;20046;-53
2022/12/28 09:06:34;;;;;;;27.70;6.30;;;;;;;7.30;86.71;101357.84;5034018;28;20033;-49
2022/12/28 09:09:03;;;;;;;18.33;7.27;;;;;;;7.36;86.38;101367.00;5034039;28;20459;-48
2022/12/28 09:11:29;;;;;;;28.30;6.65;;;;;;;7.33;86.54;101362.03;5034212;28;20033;-51
2022/12/28 09:13:55;;;;;;;17.38;5.47;;;;;;;7.22;87.88;101357.91;5033920;28;20037;-49
2022/12/28 09:16:25;;;;;;;24.70;6.43;;;;;;;6.99;88.89;101349.78;5034403;28;20357;-50
2022/12/28 09:18:59;;;;;;;35.35;7.78;;;;;;;6.91;89.30;101349.81;5033692;28;20030;-53
2022/12/28 09:21:29;;;;;;;31.85;7.22;;;;;;;6.96;88.68;101346.66;5034098;28;20104;-52
2022/12/28 09:23:56;;;;;;;30.17;6.55;;;;;;;6.88;88.99;101348.34;5033971;28;20040;-52
2022/12/28 09:26:25;;;;;;;30.75;6.55;;;;;;;6.79;90.03;101354.66;5033652;28;20040;-52
2022/12/28 09:28:59;;;;;;;19.15;6.40;;;;;;;6.70;90.60;101347.69;5033444;28;20055;-50
2022/12/28 09:31:28;;;;;;;29.38;7.63;;;;;;;6.43;93.14;101348.84;5034062;28;20021;-51
2022/12/28 09:33:58;;;;;;;29.35;7.40;;;;;;;6.50;92.71;101333.91;5033688;28;20137;-51
2022/12/28 09:36:26;;;;;;;28.67;7.03;;;;;;;6.46;92.87;101340.56;5033366;28;20109;-51
2022/12/28 09:38:53;;;;;;;41.72;7.93;;;;;;;6.39;92.57;101336.91;5033268;28;20054;-52
2022/12/28 09:41:42;;;;;;;27.08;6.75;;;;;;;6.46;92.63;101348.53;5033687;28;20034;-49
2022/12/28 09:44:32;;;;;;;24.73;6.82;;;;;;;6.67;91.71;101348.03;5033210;28;20091;-50
2022/12/28 09:47:34;;;;;;;27.80;6.40;;;;;;;6.60;90.42;101349.69;5033316;28;20029;-53
2022/12/28 09:50:15;;;;;;;24.17;5.85;;;;;;;7.01;88.30;101350.47;5026029;28;20402;-50
2022/12/28 09:52:56;;;;;;;25.75;7.47;;;;;;;6.72;89.06;101347.50;5033190;28;20025;-53
2022/12/28 09:55:25;;;;;;;17.50;5.47;;;;;;;6.77;89.39;101353.16;5033528;28;20034;-52
2022/12/28 09:57:54;;;;;;;25.50;6.32;;;;;;;6.85;88.88;101355.81;5032416;28;20029;-51
2022/12/28 10:00:24;;;;;;;19.15;5.68;;;;;;;6.76;89.01;101365.63;5033288;28;20036;-50
2022/12/28 10:02:59;;;;;;;21.23;6.10;;;;;;;6.80;88.23;101361.63;5026978;28;20130;-50
2022/12/28 10:05:26;;;;;;;;;;;;;;;7.02;87.24;101373.41;5014326;28;20096;-53
2022/12/28 10:08:00;;;;;;;19.17;5.70;;;;;;;6.89;86.69;101362.47;5016736;28;19924;-51
2022/12/28 10:10:27;;;;;;;28.80;6.85;;;;;;;6.12;90.80;101371.78;5033148;28;20072;-49
2022/12/28 10:12:54;;;;;;;19.85;5.78;;;;;;;6.06;92.18;101376.75;5032925;28;20099;-52
2022/12/28 10:15:25;;;;;;;24.90;6.63;;;;;;;5.88;93.33;101373.34;5033019;28;20026;-50
2022/12/28 10:17:51;;;;;;;24.95;6.32;;;;;;;6.06;92.15;101370.59;5032465;28;20040;-52
2022/12/28 10:20:20;;;;;;;20.65;5.20;;;;;;;6.35;90.74;101370.13;5033089;28;20032;-48
2022/12/28 10:22:54;;;;;;;20.33;5.55;;;;;;;6.38;90.18;101368.97;5032652;28;20025;-53
2022/12/28 10:25:24;;;;;;;19.17;5.13;;;;;;;6.44;89.65;101368.31;5032962;28;20052;-49
2022/12/28 10:27:51;;;;;;;21.63;6.15;;;;;;;6.43;89.24;101369.31;5032708;28;20045;-49
2022/12/28 10:30:22;;;;;;;21.98;6.10;;;;;;;6.41;88.92;101366.81;5013417;28;20129;-50
2022/12/28 10:32:52;;;;;;;27.20;6.50;;;;;;;6.77;87.53;101372.59;5013500;28;20050;-49
2022/12/28 10:35:23;;;;;;;23.67;5.97;;;;;;;6.61;87.46;101356.69;5032501;28;20388;-51
2022/12/28 10:37:50;;;;;;;21.73;6.13;;;;;;;6.20;89.02;101361.16;5031428;28;20551;-49
2022/12/28 10:40:38;;;;;;;15.98;5.47;;;;;;;6.35;88.67;101367.47;5032331;28;20492;-50
2022/12/28 10:43:19;;;;;;;25.65;6.05;;;;;;;6.21;88.49;101366.28;5032201;28;20025;-50
2022/12/28 10:45:49;;;;;;;20.52;5.50;;;;;;;6.34;87.94;101369.31;5032312;28;20091;-51
2022/12/28 10:48:18;;;;;;;25.27;6.10;;;;;;;6.28;88.01;101372.63;5031653;28;20083;-49
2022/12/28 10:50:55;;;;;;;19.95;5.32;;;;;;;5.95;89.79;101369.09;5032535;28;20049;-51
2022/12/28 10:53:31;;;;;;;27.83;6.07;;;;;;;6.03;89.29;101366.44;5031944;28;20033;-52
2022/12/28 10:56:12;;;;;;;16.95;5.90;;;;;;;6.22;88.70;101372.44;5032122;28;20060;-49
2022/12/28 10:58:40;;;;;;;15.07;4.70;;;;;;;6.32;88.18;101367.78;5031668;28;20116;-52
2022/12/28 11:01:12;;;;;;;18.10;5.32;;;;;;;6.31;87.73;101366.97;5032378;28;20041;-51
2022/12/28 11:04:01;;;;;;;22.40;4.97;;;;;;;6.39;87.34;101363.50;5031006;28;20140;-52
2022/12/28 11:06:28;;;;;;;16.02;4.28;;;;;;;6.38;87.10;101368.97;5031903;28;20033;-50
2022/12/28 11:09:15;;;;;;;20.30;5.45;;;;;;;6.29;87.50;101363.66;5031616;28;20045;-50
2022/12/28 11:11:44;;;;;;;21.83;5.07;;;;;;;6.26;87.32;101371.94;5032209;28;20026;-50
2022/12/28 11:14:29;;;;;;;23.13;4.85;;;;;;;6.26;86.96;101371.13;5031548;28;20513;-49
2022/12/28 11:16:55;;;;;;;21.88;6.25;;;;;;;6.25;87.21;101372.13;5031732;28;20029;-51
2022/12/28 11:19:24;;;;;;;18.25;5.32;;;;;;;5.87;88.61;101360.22;5013632;28;20183;-49
2022/12/28 11:21:51;;;;;;;17.77;5.53;;;;;;;5.86;89.23;101372.69;5031336;28;20048;-49
2022/12/28 11:24:19;;;;;;;19.17;5.57;;;;;;;5.91;89.24;101361.56;5012135;28;20065;-49
2022/12/28 11:26:49;;;;;;;22.65;5.78;;;;;;;5.93;89.21;101363.09;5012720;28;20025;-49
2022/12/28 11:29:18;;;;;;;17.45;4.97;;;;;;;6.09;88.75;101365.78;5030991;28;20038;-49
2022/12/28 11:31:53;;;;;;;26.58;5.78;;;;;;;6.13;88.39;101360.16;5031563;28;20028;-48
2022/12/28 11:34:25;;;;;;;18.80;4.95;;;;;;;6.18;88.11;101360.50;5031710;28;20033;-49
2022/12/28 11:36:51;;;;;;;22.55;5.55;;;;;;;6.14;87.55;101369.78;5031187;28;20025;-56
2022/12/28 11:39:27;;;;;;;23.42;5.35;;;;;;;6.13;87.86;101371.59;5031664;28;20388;-53
2022/12/28 11:41:55;;;;;;;20.27;5.15;;;;;;;6.09;87.86;101368.44;5031262;28;20061;-59
2022/12/28 11:44:28;;;;;;;14.90;5.03;;;;;;;6.21;87.40;101357.50;5031497;28;20033;-48
2022/12/28 11:47:24;;;;;;;25.23;4.93;;;;;;;6.25;86.96;101364.16;5030958;28;20476;-47
2022/12/28 11:49:52;;;;;;;;;;;;;;;6.28;86.52;101355.84;5025596;28;20069;-49
2022/12/28 11:52:32;;;;;;;20.15;5.20;;;;;;;6.18;87.16;101345.38;5031155;28;19920;-47
2022/12/28 11:55:19;;;;;;;14.82;4.53;;;;;;;6.07;87.79;101357.16;5011536;28;20042;-48
2022/12/28 11:57:45;;;;;;;25.95;6.32;;;;;;;5.99;88.47;101362.44;5030887;28;20112;-49
2022/12/28 12:00:23;;;;;;;21.85;5.97;;;;;;;5.63;90.01;101375.09;5031357;28;20030;-49